Time;durP1;ratioP1;P1;durP2;ratioP2;P2;SDS_P1;SDS_P2;PMS_P1;PMS_P2;Temp;Humidity;BMP_temperature;BMP_pressure;BME280_temperature;BME280_humidity;BME280_pressure;Samples;Min_cycle;Max_cycle;Signal;HPM_P1;HPM_P2
2022/12/23 00:07:51;;;;;;;15.73;4.05;;;;;;;22.65;34.40;101220.84;20826810;28;20129;-63
2022/12/23 00:17:52;;;;;;;20.10;4.03;;;;;;;22.70;34.67;101194.88;20820726;28;20365;-63
2022/12/23 00:28:02;;;;;;;37.40;5.32;;;;;;;22.69;34.54;101148.59;20818658;28;20042;-62
2022/12/23 00:38:04;;;;;;;15.65;3.72;;;;;;;22.74;34.79;101107.53;20830084;28;20034;-65
2022/12/23 00:58:25;;;;;;;14.13;4.13;;;;;;;22.72;34.71;100980.63;20830911;28;20030;-63
2022/12/23 01:08:27;;;;;;;11.18;3.40;;;;;;;22.68;34.48;100952.50;20828030;28;20049;-64
2022/12/23 01:18:28;;;;;;;11.27;3.13;;;;;;;22.70;34.57;100933.50;20827453;28;20041;-64
2022/12/23 01:28:31;;;;;;;10.98;2.67;;;;;;;22.73;34.49;100877.13;20827515;28;20045;-65
2022/12/23 01:38:33;;;;;;;9.25;2.63;;;;;;;22.72;34.43;100836.38;20843822;28;20066;-65
2022/12/23 01:48:35;;;;;;;7.70;2.50;;;;;;;22.69;34.24;100758.91;20843260;28;20448;-65
2022/12/23 01:58:47;;;;;;;5.47;2.08;;;;;;;22.63;34.40;100686.72;20842085;28;20438;-64
2022/12/23 02:19:36;;;;;;;9.05;1.75;;;;;;;22.56;34.43;100642.47;20841095;28;20046;-64
2022/12/23 02:29:43;;;;;;;7.50;2.60;;;;;;;22.55;34.65;100573.91;20840015;28;20045;-65
2022/12/23 02:40:12;;;;;;;5.05;1.80;;;;;;;22.49;34.60;100550.00;20839277;28;20045;-65
2022/12/23 02:50:19;;;;;;;7.95;1.77;;;;;;;22.48;34.65;100482.25;20838152;28;20459;-65
2022/12/23 03:00:21;;;;;;;4.30;1.90;;;;;;;22.35;34.40;100445.94;20837780;28;20488;-65
2022/12/23 03:10:36;;;;;;;6.40;1.73;;;;;;;22.45;34.38;100435.47;20836643;28;20033;-65
2022/12/23 03:20:53;;;;;;;3.97;1.58;;;;;;;22.42;34.58;100411.00;20830902;28;20107;-66
2022/12/23 03:30:58;;;;;;;5.82;1.50;;;;;;;22.41;34.44;100395.41;20827854;28;20041;-65
2022/12/23 03:41:06;;;;;;;4.32;1.80;;;;;;;22.36;34.58;100375.13;20844183;28;20029;-65
2022/12/23 03:51:17;;;;;;;6.07;1.80;;;;;;;22.44;34.80;100307.53;20819910;28;20038;-65
2022/12/23 04:01:26;;;;;;;4.63;1.65;;;;;;;22.52;34.38;100262.22;20813903;28;20042;-66
2022/12/23 04:11:28;;;;;;;9.38;1.85;;;;;;;22.56;34.88;100180.41;20793320;28;20041;-65
2022/12/23 04:21:30;;;;;;;4.32;1.38;;;;;;;22.57;34.71;100154.19;20826317;28;20072;-66
2022/12/23 04:31:31;;;;;;;8.73;1.60;;;;;;;22.60;34.82;100091.41;20791074;28;20509;-65
2022/12/23 04:41:32;;;;;;;5.90;1.80;;;;;;;22.62;34.77;100005.47;20829342;28;20107;-66
2022/12/23 04:51:34;;;;;;;5.13;1.50;;;;;;;22.62;34.77;99938.53;20829052;28;20040;-66
2022/12/23 05:01:40;;;;;;;5.38;1.60;;;;;;;22.68;35.21;99820.16;20821690;28;20501;-65
2022/12/23 05:11:42;;;;;;;7.35;1.60;;;;;;;22.55;35.44;99782.03;20825983;28;20044;-66
2022/12/23 05:21:43;;;;;;;7.38;1.73;;;;;;;22.66;35.64;99791.75;20822618;28;20420;-65
2022/12/23 05:31:45;;;;;;;3.97;1.52;;;;;;;22.66;35.35;99737.97;20810319;28;20046;-65
2022/12/23 05:41:46;;;;;;;7.00;1.30;;;;;;;22.67;35.29;99651.19;20805824;28;20053;-65
2022/12/23 05:51:47;;;;;;;4.22;1.25;;;;;;;22.69;35.43;99542.94;20812109;28;20384;-65
2022/12/23 06:01:49;;;;;;;9.30;2.13;;;;;;;22.65;35.94;99581.00;20767561;28;20042;-65
2022/12/23 06:11:50;;;;;;;5.63;1.77;;;;;;;22.69;35.87;99603.47;20802827;28;20095;-65
2022/12/23 06:21:51;;;;;;;4.43;1.25;;;;;;;22.64;36.43;99601.66;20834473;28;20119;-65
2022/12/23 06:31:53;;;;;;;5.05;1.48;;;;;;;22.66;36.55;99568.69;20821563;28;20038;-64
2022/12/23 06:41:54;;;;;;;8.57;1.75;;;;;;;22.67;36.74;99544.41;20792357;28;20045;-65
2022/12/23 06:51:56;;;;;;;3.92;1.35;;;;;;;22.65;36.86;99519.66;20838803;28;20392;-65
2022/12/23 07:01:57;;;;;;;4.82;1.33;;;;;;;22.66;36.61;99500.94;20838507;28;20041;-65
2022/12/23 07:11:58;;;;;;;5.45;1.13;;;;;;;22.56;36.52;99471.44;20837214;28;20034;-65
2022/12/23 07:22:00;;;;;;;5.97;1.60;;;;;;;22.65;36.79;99436.00;20836248;28;20045;-65
2022/12/23 07:32:02;;;;;;;5.72;1.65;;;;;;;22.65;36.76;99401.72;20834039;28;20554;-65
2022/12/23 07:42:03;;;;;;;2.70;1.15;;;;;;;22.65;36.91;99374.66;20834664;28;20057;-65
2022/12/23 07:52:05;;;;;;;4.47;1.48;;;;;;;22.63;36.75;99326.75;20835466;28;20567;-66
2022/12/23 08:02:06;;;;;;;3.78;1.38;;;;;;;22.62;36.78;99291.66;20799424;28;20041;-65
2022/12/23 08:12:07;;;;;;;3.72;1.10;;;;;;;22.58;36.94;99254.44;20789321;28;20556;-65
2022/12/23 08:22:09;;;;;;;3.50;1.00;;;;;;;22.62;36.52;99237.88;20831360;28;20049;-66
2022/12/23 08:32:10;;;;;;;3.00;1.05;;;;;;;22.61;36.28;99198.03;20801769;28;20045;-66
2022/12/23 08:42:12;;;;;;;4.13;1.15;;;;;;;22.64;36.24;99155.56;20780536;28;20050;-65
2022/12/23 08:52:13;;;;;;;2.75;1.17;;;;;;;22.69;36.44;99138.66;20824127;28;20447;-65
2022/12/23 09:02:14;;;;;;;1.65;0.80;;;;;;;22.73;36.75;99106.16;20828825;28;20042;-65
2022/12/23 09:12:16;;;;;;;2.78;1.00;;;;;;;22.75;36.73;99056.41;20821516;28;20030;-65
2022/12/23 09:22:20;;;;;;;1.98;0.88;;;;;;;22.72;36.57;99026.41;20786610;28;20056;-66
2022/12/23 09:32:21;;;;;;;1.88;0.90;;;;;;;22.79;36.46;99023.91;20825007;28;20041;-66
2022/12/23 09:42:44;;;;;;;1.80;0.80;;;;;;;22.81;36.66;99060.63;20787823;28;20034;-65
2022/12/23 09:52:52;;;;;;;1.85;0.68;;;;;;;22.75;37.20;99041.66;20816400;28;20095;-65
2022/12/23 10:03:21;;;;;;;2.20;0.68;;;;;;;22.77;36.87;99025.41;20841624;28;20103;-65
2022/12/23 10:13:40;;;;;;;2.00;0.60;;;;;;;22.80;36.82;99014.38;20841568;28;20049;-66
2022/12/23 10:23:48;;;;;;;1.48;0.70;;;;;;;22.80;37.08;98996.84;20841229;28;20057;-65
2022/12/23 10:34:06;;;;;;;1.07;0.50;;;;;;;22.81;36.80;99004.03;20836552;28;20554;-65
2022/12/23 10:44:44;;;;;;;0.73;0.47;;;;;;;22.74;36.83;99031.69;20775506;28;20119;-65
2022/12/23 10:54:48;;;;;;;0.60;0.45;;;;;;;22.82;36.77;99000.94;20836837;28;20111;-65
2022/12/23 11:04:49;;;;;;;1.48;0.50;;;;;;;22.80;36.76;99013.56;20836820;28;20046;-65
2022/12/23 11:14:55;;;;;;;0.63;0.35;;;;;;;22.81;36.47;98999.28;20836968;28;20041;-65
2022/12/23 11:25:25;;;;;;;1.10;0.50;;;;;;;22.65;36.69;98973.19;20836284;28;20050;-65
2022/12/23 11:35:34;;;;;;;0.95;0.50;;;;;;;22.81;36.70;98984.53;20819082;28;20049;-66
2022/12/23 11:45:37;;;;;;;0.60;0.30;;;;;;;22.77;36.46;98981.63;20753592;28;20477;-65
2022/12/23 11:55:45;;;;;;;0.40;0.30;;;;;;;22.75;36.41;98966.38;20797154;28;20033;-65
2022/12/23 12:05:52;;;;;;;0.82;0.30;;;;;;;22.73;36.45;98941.63;20793149;28;20054;-65
2022/12/23 12:16:19;;;;;;;1.10;0.50;;;;;;;22.66;36.24;98972.03;20822411;28;20037;-65
2022/12/23 12:26:29;;;;;;;0.45;0.22;;;;;;;22.65;36.61;98950.88;20829842;28;20123;-64
2022/12/23 12:37:00;;;;;;;1.55;0.40;;;;;;;22.59;36.61;98929.97;20804649;28;20405;-65
2022/12/23 12:47:30;;;;;;;3.90;0.63;;;;;;;22.56;36.62;98930.63;20786893;28;20045;-65
2022/12/23 12:57:35;;;;;;;11.52;1.30;;;;;;;22.56;36.77;98913.91;20797436;28;20038;-62
2022/12/23 13:08:04;;;;;;;9.32;0.68;;;;;;;22.49;36.63;98880.97;20764086;28;20045;-64
2022/12/23 13:18:15;;;;;;;9.18;1.13;;;;;;;22.49;36.65;98874.59;20810638;28;20099;-64
2022/12/23 13:28:34;;;;;;;13.52;1.30;;;;;;;22.50;37.09;98859.53;20826861;28;20095;-61
2022/12/23 13:38:41;;;;;;;13.13;2.20;;;;;;;22.53;36.77;98842.09;20810335;28;20046;-62
2022/12/23 13:48:55;;;;;;;9.70;1.02;;;;;;;22.51;36.90;98802.63;20826629;28;20048;-62
2022/12/23 13:58:57;;;;;;;7.03;1.13;;;;;;;22.54;37.12;98787.97;20764833;28;20046;-62
2022/12/23 14:08:58;;;;;;;3.65;0.90;;;;;;;22.59;36.90;98751.56;20780231;28;20053;-63
2022/12/23 14:19:09;;;;;;;6.78;1.00;;;;;;;22.59;36.68;98740.41;20782455;28;20042;-62
2022/12/23 14:29:29;;;;;;;5.00;0.70;;;;;;;22.63;36.87;98705.06;20819361;28;20124;-63
2022/12/23 14:39:33;;;;;;;3.80;0.65;;;;;;;22.71;36.99;98681.06;20811403;28;20091;-62
2022/12/23 14:49:38;;;;;;;6.28;0.85;;;;;;;22.73;37.05;98665.63;20838485;28;20057;-63
2022/12/23 14:59:52;;;;;;;1.90;0.70;;;;;;;22.73;37.16;98634.94;20839238;28;20029;-63
2022/12/23 15:09:59;;;;;;;5.05;0.70;;;;;;;22.72;36.66;98599.84;20836455;28;20099;-63
2022/12/23 15:20:10;;;;;;;1.98;0.80;;;;;;;22.76;36.49;98584.03;20835508;28;20076;-64
2022/12/23 15:30:15;;;;;;;3.13;0.57;;;;;;;22.78;36.90;98520.41;20835702;28;20054;-63
2022/12/23 15:40:31;;;;;;;0.80;0.43;;;;;;;22.68;36.42;98663.06;20834790;28;20041;-64
2022/12/23 15:50:40;;;;;;;3.47;0.75;;;;;;;22.62;36.27;98632.97;20834222;28;20033;-64
2022/12/23 16:01:01;;;;;;;4.53;0.93;;;;;;;22.58;36.30;98643.97;20833960;28;20041;-63
2022/12/23 16:11:12;;;;;;;1.67;0.70;;;;;;;22.55;36.11;98667.81;20829044;28;20030;-64
2022/12/23 16:21:14;;;;;;;2.20;0.45;;;;;;;22.53;36.33;98666.50;20831715;28;20041;-64
2022/12/23 16:31:20;;;;;;;0.57;0.35;;;;;;;22.40;36.25;98643.38;20831037;28;20397;-63
2022/12/23 16:41:22;;;;;;;1.88;0.60;;;;;;;22.49;36.25;98624.56;20830702;28;20038;-63
2022/12/23 16:51:27;;;;;;;0.80;0.40;;;;;;;22.53;36.24;98652.56;20829502;28;20480;-63
2022/12/23 17:01:38;;;;;;;0.65;0.50;;;;;;;22.35;36.13;98614.94;20828658;28;20396;-62
2022/12/23 17:11:45;;;;;;;1.35;0.70;;;;;;;22.36;35.83;98652.78;20828259;28;20037;-62
2022/12/23 17:22:01;;;;;;;1.37;0.43;;;;;;;22.46;35.74;98755.47;20828362;28;20127;-63
2022/12/23 17:32:03;;;;;;;1.02;0.60;;;;;;;22.47;35.51;98826.75;20813936;28;20319;-63
2022/12/23 17:42:04;;;;;;;2.50;0.60;;;;;;;22.36;35.44;98858.97;20812582;28;20042;-62
2022/12/23 17:52:18;;;;;;;1.80;0.73;;;;;;;22.39;35.66;98919.59;20816267;28;20045;-64
2022/12/23 18:02:24;;;;;;;0.73;0.50;;;;;;;22.36;35.29;98965.69;20815992;28;20095;-64
2022/12/23 18:12:36;;;;;;;1.33;0.70;;;;;;;22.37;35.30;99005.53;20764209;28;20038;-62
2022/12/23 18:22:41;;;;;;;5.47;1.00;;;;;;;22.25;35.18;99009.84;20835183;28;20385;-66
2022/12/23 18:32:43;;;;;;;10.25;1.15;;;;;;;22.27;34.97;99038.19;20841931;28;20041;-66
2022/12/23 18:42:44;;;;;;;6.50;1.38;;;;;;;22.33;35.08;99064.72;20840706;28;20045;-66
2022/12/23 18:52:46;;;;;;;3.15;1.13;;;;;;;22.33;34.99;99088.97;20839201;28;20044;-66
2022/12/23 19:02:48;;;;;;;2.83;1.20;;;;;;;22.35;34.83;99111.75;20838817;28;20041;-66
2022/12/23 19:12:50;;;;;;;4.97;1.27;;;;;;;22.43;34.44;99165.81;20839385;28;20103;-64
2022/12/23 19:22:51;;;;;;;4.55;1.13;;;;;;;22.46;33.82;99190.25;20835853;28;20103;-66
2022/12/23 19:32:53;;;;;;;2.97;1.33;;;;;;;22.46;33.58;99215.31;20836253;28;20083;-66
2022/12/23 19:42:54;;;;;;;2.47;1.30;;;;;;;22.46;33.58;99268.28;20835085;28;20041;-66
2022/12/23 19:52:56;;;;;;;1.60;1.20;;;;;;;22.43;33.42;99316.31;20834203;28;20444;-66
2022/12/23 20:02:57;;;;;;;1.73;1.00;;;;;;;22.42;33.13;99359.28;20834189;28;20052;-66
2022/12/23 20:12:58;;;;;;;2.60;1.27;;;;;;;22.24;33.18;99378.78;20831805;28;20037;-66
2022/12/23 20:23:00;;;;;;;3.17;1.45;;;;;;;22.31;33.07;99446.00;20832926;28;20041;-66
2022/12/23 20:33:01;;;;;;;3.28;1.33;;;;;;;22.27;32.63;99489.59;20831348;28;20042;-66
2022/12/23 20:43:02;;;;;;;2.85;1.23;;;;;;;22.25;32.76;99530.06;20830587;28;20041;-66
2022/12/23 20:53:07;;;;;;;2.70;1.60;;;;;;;22.20;32.27;99546.94;20829571;28;20041;-66
2022/12/23 21:03:12;;;;;;;2.67;1.33;;;;;;;22.12;32.12;99568.03;20829244;28;20423;-66
2022/12/23 21:13:13;;;;;;;1.88;1.10;;;;;;;22.07;32.26;99605.19;20827641;28;20045;-66
2022/12/23 21:23:15;;;;;;;5.57;1.55;;;;;;;22.02;32.25;99618.44;20791455;28;20038;-66
2022/12/23 21:33:18;;;;;;;2.88;1.55;;;;;;;21.99;31.35;99635.78;20814732;28;20519;-65
2022/12/23 21:43:19;;;;;;;3.97;1.67;;;;;;;21.96;31.59;99679.03;20816513;28;20508;-65
2022/12/23 21:53:23;;;;;;;2.58;1.20;;;;;;;21.95;31.75;99716.41;20837419;28;20048;-65
2022/12/23 22:03:31;;;;;;;5.05;2.05;;;;;;;21.95;31.22;99757.38;20837731;28;20071;-61
2022/12/23 22:13:36;;;;;;;19.13;2.50;;;;;;;21.95;31.82;99785.22;20763929;28;20042;-61
2022/12/23 22:23:38;;;;;;;21.08;2.40;;;;;;;22.02;31.70;99819.00;20800898;28;20050;-60
2022/12/23 22:33:39;;;;;;;20.65;3.40;;;;;;;22.02;31.29;99836.53;20758022;28;20038;-60
2022/12/23 22:43:41;;;;;;;41.67;3.72;;;;;;;22.04;31.03;99862.16;20804272;28;20497;-61
2022/12/23 22:53:42;;;;;;;38.00;4.53;;;;;;;22.06;30.90;99887.72;20795264;28;20049;-61
2022/12/23 23:03:44;;;;;;;155.27;13.80;;;;;;;22.04;31.43;99933.75;20837041;28;20099;-61
2022/12/23 23:13:45;;;;;;;230.32;23.17;;;;;;;22.09;32.10;99958.72;20833735;28;20061;-60
2022/12/23 23:23:47;;;;;;;203.10;17.23;;;;;;;22.10;31.99;99973.47;20821928;28;20080;-60
2022/12/23 23:33:48;;;;;;;194.70;16.23;;;;;;;22.10;31.73;100020.84;20810604;28;20117;-60
2022/12/23 23:43:50;;;;;;;207.40;22.13;;;;;;;22.12;32.15;100044.47;20835125;28;20111;-62
2022/12/23 23:53:52;;;;;;;191.45;23.60;;;;;;;22.15;32.57;100073.69;20812504;28;20092;-63
